Carnegie, PA (15106)

8:45 AM EDT on August 28, 2015 (GMT -0400)
KPASCOTT2 | | Change Station
CLOSE
Current Station
Personal Weather Station
Location: Scott Township, PA
Elevation: 826 ft
Nearby Weather Stations

Elev 826 ft 40.40 °N, 80.10 °W | Updated 25 seconds ago

Clear
Clear
59.4 °F
Feels Like 59.4 °F
N
0.0
Wind Variable Wind from South
Gusts 0.0 mph

Today
High -- | Low -- °F
--% Chance of Precip.
Yesterday
High -- | Low -- °F
Precip. -- in
6:43 AM 7:59 PM
Waxing Gibbous, 98% visible
Pressure 30.24 in
Visibility 9.0 miles
Clouds Clear
Dew Point 58 °F
Humidity 95%
Rainfall 0.00 in
Snow Depth Not available.
UV 1 out of 12
Pollen 9.80 out of 12
Air Quality Not available.
Flu Activity Not available.
METAR KPIT 281151Z 00000KT 9SM CLR 14/11 A3022 RMK AO2 SLP239 T01390111 10156 20117 53016 $
Pressure 30.24 in
Visibility 9.0 miles
Clouds Clear
Dew Point 58 °F
Humidity 95%
Rainfall 0.00 in
Snow Depth Not available.
UV 1 out of 12
Pollen 9.80 out of 12
Air Quality Not available.
Flu Activity Not available.
METAR KPIT 281151Z 00000KT 9SM CLR 14/11 A3022 RMK AO2 SLP239 T01390111 10156 20117 53016 $

10-Day Weather Forecast

×

Almanac

Astronomy

Aug. 28, 2015 Rise Set
Actual Time
Civil Twilight
Nautical Twilight
Astronomical Twilight
Moon
Length of Visible Light
Length of Day
Tomorrow will be .
, % of the Moon is Illuminated

Today's Extremes

State Highs State Lows

Community

WunderPhotos

Upload Photos

1,850,373 photos uploaded!

WunderBlogs® & News

Nearby

Air Quality

  Air Quality AQ Index Pollutant
Not available.

Snow Depth

Station Depth Elevation

Earthquake Activity

City Distance Mag. Time & Date
Minimum magnitude displayed is 2.5.

Coastal Water Temperatures

Place Temperature

Stations

Nearby Weather Stations

Station Location Temp. Windchill Dew Point Humidity Wind Precip. Elev Updated Type